KBNA

Nashville International Airport

Nashville, Tennessee, USA
METAR KBNA 101553Z 36009KT 10SM FEW200 BKN250 04/M03 A3026 RMK AO2 SLP249 T00391033
Observed Flight Rules
Dec-10 @ 15:53 UTC (10 minutes ago) Visual Flight Rules
Wind Visibility Clouds
360° at 9 knots 10 miles
  • Few at 20,000' AGL
  • Broken at 25,000' AGL
Temperatures Readings
Current 4°C / 39°F
Dewpoint -3°C / 27°F
Humidity 61%
Altimeter 30.26" Hg
Pressure 1024.9 hPa
Elevation 210
METAR KBNA 101553Z 36009KT 10SM FEW200 BKN250 04/M03 A3026 RMK AO2 SLP249 T00391033
Observed Flight Rules
Dec-10 @ 15:53 UTC
(10 minutes ago)
VFR
Wind Visibility
360° at 9 knots 10 miles
Clouds
  • Few at 20,000' AGL
  • Broken at 25,000' AGL
Temperature Dewpoint
4°C / 39°F -3°C / 27°F
Humidity Altimeter Pressure
61% 30.26" Hg 1024.9 hPa